Oaklandon, Indiana
Current Conditions -  °F | °C
As of 12:15 AM on Saturday 20 Dec 2014 (Local Time) from KMQJ Reporting Station
Overcast Overcast  
Wind Chill: 28°   Ceiling: 3000
Heat Index: 28°   Visibility: 7mi
Dew Point: 21°   Wind: 0mph
Humidity: 74%   Direction: NA
Pressure: 30.25"   Gusts: NA
Location:  39.8642°N, 86.0139°W
Report Text: KMQJ 200515Z AUTO 00000KT 7SM OVC030 M02/M06 A3025 RMK AO1
Loading
Personal Weather Stations






























Interactive Weather Map New forecast layout! Learn more

10-Day Weather Forecast

Advertisements
Track Severe Weather on mobile